Hilo, Hawaii
Current Conditions -  °F | °C
As of 1:53 AM on Saturday 25 Oct 2014 (Local Time) from PHTO Reporting Station
Clear Clear  
Wind Chill: 21°   Ceiling: Unl
Heat Index: 21°   Visibility: 10mi
Dew Point: 16°   Wind: 8mph
Humidity: 71%   Direction: 240°WSW
Pressure: 30.01"   Gusts: NA
Location:  19.72°N, 155.08°W
Report Text: PHTO 251153Z 24007KT 10SM CLR 21/16 A3001 RMK AO2 SLP162 70002 T02110156 10239 20211 58013
Loading
Personal Weather Stations






























Interactive Weather Map
Tropical Storm Tracking
New forecast layout! Learn more

10-Day Weather Forecast

Advertisements
Track Severe Weather on mobile